Time;durP1;ratioP1;P1;durP2;ratioP2;P2;SDS_P1;SDS_P2;PMS_P1;PMS_P2;Temp;Humidity;BMP_temperature;BMP_pressure;BME280_temperature;BME280_humidity;BME280_pressure;Samples;Min_cycle;Max_cycle;Signal;HPM_P1;HPM_P2
2021/08/01 00:00:49;;;;;;;8.47;7.77;;;17.00;99.90;;;;;;5055211;28;20740;-66
2021/08/01 00:03:15;;;;;;;8.57;7.97;;;16.90;99.90;;;;;;5055599;28;20178;-67
2021/08/01 00:05:45;;;;;;;8.20;7.70;;;16.90;99.90;;;;;;5055544;28;20194;-67
2021/08/01 00:08:11;;;;;;;8.80;8.03;;;16.70;99.90;;;;;;5055301;28;20281;-67
2021/08/01 00:10:36;;;;;;;8.37;7.77;;;16.70;99.90;;;;;;5055482;28;20174;-66
2021/08/01 00:13:02;;;;;;;8.63;7.87;;;16.60;99.90;;;;;;5055478;28;20532;-66
2021/08/01 00:15:28;;;;;;;9.27;8.57;;;16.50;99.90;;;;;;5055314;28;20178;-66
2021/08/01 00:17:54;;;;;;;8.30;7.70;;;16.50;99.90;;;;;;5055190;28;20214;-67
2021/08/01 00:20:19;;;;;;;9.10;8.50;;;16.50;99.90;;;;;;5055071;28;20820;-67
2021/08/01 00:22:45;;;;;;;8.57;7.87;;;16.60;99.90;;;;;;5054997;28;20292;-67
2021/08/01 00:25:11;;;;;;;9.00;8.40;;;16.60;99.90;;;;;;5034876;28;20587;-67
2021/08/01 00:27:37;;;;;;;9.27;8.57;;;16.50;99.90;;;;;;5035186;28;20229;-67
2021/08/01 00:30:04;;;;;;;9.37;8.60;;;16.50;99.90;;;;;;5053291;28;20647;-66
2021/08/01 00:32:30;;;;;;;8.63;7.87;;;16.50;99.90;;;;;;5055245;28;20171;-66
2021/08/01 00:34:56;;;;;;;9.47;8.70;;;16.50;99.90;;;;;;5054821;28;20178;-67
2021/08/01 00:37:21;;;;;;;8.23;7.50;;;16.50;99.90;;;;;;5054816;28;20187;-67
2021/08/01 00:39:47;;;;;;;7.87;7.37;;;16.40;99.90;;;;;;5053279;28;20270;-67
2021/08/01 00:42:12;;;;;;;7.90;7.40;;;16.50;99.90;;;;;;5055143;28;20175;-66
2021/08/01 00:44:38;;;;;;;9.67;7.37;;;16.50;99.90;;;;;;5054816;28;20220;-66
2021/08/01 00:47:04;;;;;;;7.57;6.97;;;16.60;99.90;;;;;;5054483;28;20707;-67
2021/08/01 00:49:30;;;;;;;8.77;8.07;;;16.50;99.90;;;;;;5054223;28;20286;-67
2021/08/01 00:51:56;;;;;;;8.87;8.07;;;16.50;99.90;;;;;;5054196;28;20250;-67
2021/08/01 00:54:24;;;;;;;8.47;7.87;;;16.50;99.90;;;;;;5054391;28;20212;-66
2021/08/01 00:56:50;;;;;;;8.13;7.53;;;16.50;99.90;;;;;;5054143;28;20175;-66
2021/08/01 00:59:16;;;;;;;8.20;7.57;;;16.60;99.90;;;;;;5053870;28;20257;-66
2021/08/01 01:02:08;;;;;;;8.40;7.67;;;16.60;99.90;;;;;;5054267;28;20179;-66
2021/08/01 01:04:39;;;;;;;7.93;7.40;;;16.50;99.90;;;;;;5053920;28;20183;-66
2021/08/01 01:07:39;;;;;;;8.63;8.03;;;16.60;99.90;;;;;;5054163;28;20245;-66
2021/08/01 01:10:17;;;;;;;8.60;7.90;;;16.50;99.90;;;;;;5054463;28;20256;-67
2021/08/01 01:12:47;;;;;;;8.37;7.67;;;16.50;99.90;;;;;;5054491;28;20536;-66
2021/08/01 01:15:19;;;;;;;7.90;7.40;;;16.60;99.90;;;;;;5054434;28;20532;-67
2021/08/01 01:17:48;;;;;;;8.80;7.93;;;16.50;99.90;;;;;;5054091;28;20203;-67
2021/08/01 01:20:30;;;;;;;8.23;7.63;;;16.40;99.90;;;;;;5053956;28;20213;-67
2021/08/01 01:23:29;;;;;;;8.30;7.63;;;16.40;99.90;;;;;;5055485;28;20254;-67
2021/08/01 01:26:03;;;;;;;8.80;8.17;;;16.40;99.90;;;;;;5054239;28;20199;-66
2021/08/01 01:28:50;;;;;;;9.43;8.53;;;16.30;99.90;;;;;;5053962;28;20195;-67
2021/08/01 01:31:16;;;;;;;10.57;8.30;;;16.30;99.90;;;;;;5053726;28;20171;-66
2021/08/01 01:34:06;;;;;;;8.10;7.50;;;16.20;99.90;;;;;;5053799;28;20183;-67
2021/08/01 01:36:34;;;;;;;11.33;7.87;;;16.20;99.90;;;;;;5054111;28;20175;-66
2021/08/01 01:39:02;;;;;;;8.73;8.13;;;16.10;99.90;;;;;;5053516;28;20211;-66
2021/08/01 01:41:29;;;;;;;8.10;7.50;;;16.10;99.90;;;;;;5053522;28;20175;-67
2021/08/01 01:43:55;;;;;;;8.73;8.13;;;16.10;99.90;;;;;;5053378;28;20575;-66
2021/08/01 01:46:23;;;;;;;8.73;8.00;;;16.20;99.90;;;;;;5053845;28;20194;-66
2021/08/01 01:48:51;;;;;;;9.53;8.60;;;16.30;99.90;;;;;;5053441;28;20668;-66
2021/08/01 01:51:18;;;;;;;8.60;7.83;;;16.30;99.90;;;;;;5053186;28;20217;-66
2021/08/01 01:53:45;;;;;;;8.53;7.90;;;16.30;99.90;;;;;;5053746;28;20175;-66
2021/08/01 01:56:13;;;;;;;9.53;8.67;;;16.30;99.90;;;;;;5053326;28;20178;-68
2021/08/01 01:58:39;;;;;;;10.20;9.30;;;16.30;99.90;;;;;;5052335;28;20186;-67
2021/08/01 02:01:05;;;;;;;8.43;7.73;;;16.40;99.90;;;;;;5053271;28;20166;-67
2021/08/01 02:03:30;;;;;;;9.67;8.83;;;16.40;99.90;;;;;;5053340;28;20217;-67
2021/08/01 02:05:56;;;;;;;8.87;8.07;;;16.40;99.90;;;;;;5053558;28;20222;-67
2021/08/01 02:08:21;;;;;;;9.80;8.90;;;16.30;99.90;;;;;;5053648;28;20669;-66
2021/08/01 02:10:57;;;;;;;8.53;7.83;;;16.20;99.90;;;;;;5052659;28;20266;-65
2021/08/01 02:13:29;;;;;;;8.20;7.60;;;16.10;99.90;;;;;;5053127;28;20177;-67
2021/08/01 02:16:00;;;;;;;8.13;7.63;;;16.00;99.90;;;;;;5053290;28;20232;-67
2021/08/01 02:18:36;;;;;;;9.63;8.17;;;16.00;99.90;;;;;;5053037;28;20277;-66
2021/08/01 02:21:02;;;;;;;8.70;7.90;;;15.90;99.90;;;;;;5052756;28;20180;-66
2021/08/01 02:23:34;;;;;;;9.13;8.33;;;15.90;99.90;;;;;;5052760;28;20221;-67
2021/08/01 02:26:01;;;;;;;9.40;8.77;;;15.90;99.90;;;;;;5052960;28;20195;-66
2021/08/01 02:28:29;;;;;;;10.50;9.50;;;15.80;99.90;;;;;;5052680;28;20190;-67
2021/08/01 02:30:56;;;;;;;9.30;8.50;;;15.80;99.90;;;;;;5052668;28;20254;-67
2021/08/01 02:33:29;;;;;;;8.63;8.00;;;15.80;99.90;;;;;;5052569;28;20254;-67
2021/08/01 02:36:01;;;;;;;8.90;8.20;;;15.80;99.90;;;;;;5052841;28;20224;-67
2021/08/01 02:38:29;;;;;;;8.77;8.07;;;15.90;99.90;;;;;;5052147;28;20214;-67
2021/08/01 02:41:01;;;;;;;10.90;8.70;;;15.90;99.90;;;;;;5052285;28;20171;-66
2021/08/01 02:43:29;;;;;;;8.83;8.13;;;15.80;99.90;;;;;;5052422;28;20188;-66
2021/08/01 02:45:55;;;;;;;8.63;8.03;;;15.90;99.90;;;;;;5052468;28;20191;-67
2021/08/01 02:48:23;;;;;;;9.20;8.47;;;15.90;99.90;;;;;;5051976;28;20594;-66
2021/08/01 02:51:07;;;;;;;9.83;9.03;;;15.80;99.90;;;;;;5052347;28;20301;-67
2021/08/01 02:53:38;;;;;;;9.80;8.90;;;15.90;99.90;;;;;;5051998;28;20185;-66
2021/08/01 02:56:05;;;;;;;9.10;8.33;;;15.80;99.90;;;;;;5052428;28;20175;-67
2021/08/01 02:58:33;;;;;;;9.03;8.27;;;15.90;99.90;;;;;;5051916;28;20199;-67
2021/08/01 03:00:59;;;;;;;8.90;8.20;;;15.80;99.90;;;;;;5051611;28;20629;-66
2021/08/01 03:03:27;;;;;;;9.17;8.47;;;15.80;99.90;;;;;;5052070;28;20714;-67
2021/08/01 03:05:53;;;;;;;9.73;8.93;;;15.80;99.90;;;;;;5051939;28;20194;-67
2021/08/01 03:08:20;;;;;;;8.60;8.00;;;15.80;99.90;;;;;;5051957;28;20191;-66
2021/08/01 03:10:48;;;;;;;9.93;9.17;;;15.80;99.90;;;;;;5051962;28;20177;-67
2021/08/01 03:13:15;;;;;;;9.60;8.87;;;15.80;99.90;;;;;;5052343;28;20167;-66
2021/08/01 03:15:43;;;;;;;9.40;8.50;;;15.80;99.90;;;;;;5052118;28;20191;-67
2021/08/01 03:18:09;;;;;;;10.50;8.50;;;15.80;99.90;;;;;;5052079;28;20187;-67
2021/08/01 03:20:34;;;;;;;9.33;8.43;;;15.90;99.90;;;;;;5051623;28;20171;-66
2021/08/01 03:23:00;;;;;;;9.87;8.97;;;15.80;99.90;;;;;;5052166;28;20242;-67
2021/08/01 03:25:26;;;;;;;8.93;8.23;;;15.80;99.90;;;;;;5051717;28;20545;-66
2021/08/01 03:27:51;;;;;;;9.60;8.80;;;15.80;99.90;;;;;;5052010;28;20197;-65
2021/08/01 03:30:17;;;;;;;10.23;9.33;;;15.80;99.90;;;;;;5052687;28;20167;-66
2021/08/01 03:32:42;;;;;;;10.00;9.13;;;15.80;99.90;;;;;;5051817;28;20186;-67
2021/08/01 03:35:08;;;;;;;9.40;8.60;;;15.80;99.90;;;;;;5050220;28;20293;-67
2021/08/01 03:37:34;;;;;;;9.73;8.87;;;15.70;99.90;;;;;;5051019;28;20183;-67
2021/08/01 03:39:59;;;;;;;10.87;9.40;;;15.70;99.90;;;;;;5058237;22;20321;-67
2021/08/01 03:42:25;;;;;;;10.17;9.17;;;15.80;99.90;;;;;;5015740;28;20171;-70
2021/08/01 03:44:51;;;;;;;10.50;9.30;;;15.80;99.90;;;;;;5032662;28;20640;-68
2021/08/01 03:47:16;;;;;;;10.03;9.03;;;15.70;99.90;;;;;;5023575;28;20242;-68
2021/08/01 03:49:45;;;;;;;10.40;9.30;;;15.70;99.90;;;;;;5032470;28;20195;-66
2021/08/01 03:52:11;;;;;;;10.70;9.60;;;15.70;99.90;;;;;;5031092;28;20265;-66
2021/08/01 03:54:37;;;;;;;10.30;9.30;;;15.70;99.90;;;;;;5031318;28;20229;-66
2021/08/01 03:57:03;;;;;;;10.93;9.83;;;15.60;99.90;;;;;;5031026;28;20649;-66
2021/08/01 03:59:34;;;;;;;10.37;9.37;;;15.50;99.90;;;;;;5030876;28;20217;-66
2021/08/01 04:01:59;;;;;;;12.50;11.20;;;15.50;99.90;;;;;;5031075;28;20226;-66
2021/08/01 04:04:25;;;;;;;12.13;10.97;;;15.50;99.90;;;;;;5031304;28;20648;-67
2021/08/01 04:06:50;;;;;;;12.73;11.43;;;15.50;99.90;;;;;;5030777;28;20207;-66
2021/08/01 04:09:16;;;;;;;13.77;11.77;;;15.40;99.90;;;;;;5029966;28;20196;-66
2021/08/01 04:11:44;;;;;;;12.37;10.83;;;15.40;99.90;;;;;;5031104;28;20175;-66
2021/08/01 04:14:10;;;;;;;12.33;11.03;;;15.40;99.90;;;;;;5031180;28;20171;-66
2021/08/01 04:16:36;;;;;;;12.37;11.03;;;15.40;99.90;;;;;;5030871;28;20267;-66
2021/08/01 04:19:07;;;;;;;13.00;11.63;;;15.40;99.90;;;;;;5030965;28;20204;-66
2021/08/01 04:21:33;;;;;;;13.43;11.70;;;15.40;99.90;;;;;;5030898;28;20184;-66
2021/08/01 04:23:58;;;;;;;12.77;11.07;;;15.50;99.90;;;;;;5031052;28;20556;-66
2021/08/01 04:26:24;;;;;;;13.13;11.43;;;15.40;99.90;;;;;;5030748;28;20241;-66
2021/08/01 04:28:50;;;;;;;11.73;10.27;;;15.40;99.90;;;;;;5031387;28;20281;-66
2021/08/01 04:31:15;;;;;;;12.27;11.07;;;15.30;99.90;;;;;;5029181;28;20269;-66
2021/08/01 04:33:41;;;;;;;11.63;10.43;;;15.40;99.90;;;;;;5032427;28;20521;-66
2021/08/01 04:36:06;;;;;;;12.57;11.33;;;15.40;99.90;;;;;;5034317;28;20186;-66
2021/08/01 04:38:32;;;;;;;12.00;10.90;;;15.40;99.90;;;;;;5034387;28;20207;-66
2021/08/01 04:40:58;;;;;;;13.03;11.23;;;15.30;99.90;;;;;;5033933;28;20656;-66
2021/08/01 04:43:23;;;;;;;11.90;10.63;;;15.30;99.90;;;;;;5034465;28;20539;-67
2021/08/01 04:45:49;;;;;;;11.97;10.97;;;15.30;99.90;;;;;;5034004;28;20191;-66
2021/08/01 04:48:14;;;;;;;12.07;10.97;;;15.30;99.90;;;;;;5034459;28;20297;-66
2021/08/01 04:50:40;;;;;;;12.37;11.23;;;15.30;99.90;;;;;;5034028;28;20254;-67
2021/08/01 04:53:06;;;;;;;10.67;9.77;;;15.30;99.90;;;;;;5034200;28;20168;-66
2021/08/01 04:55:31;;;;;;;11.73;10.47;;;15.30;99.90;;;;;;5034179;28;20164;-66
2021/08/01 04:57:57;;;;;;;12.13;10.30;;;15.30;99.90;;;;;;5032543;28;20645;-66
2021/08/01 05:00:22;;;;;;;13.33;10.53;;;15.40;99.90;;;;;;5049147;28;20167;-66
2021/08/01 05:02:48;;;;;;;13.40;10.80;;;15.40;99.90;;;;;;5033857;28;20225;-66
2021/08/01 05:05:14;;;;;;;11.07;10.03;;;15.30;99.90;;;;;;5032576;28;20176;-67
2021/08/01 05:07:39;;;;;;;10.53;9.47;;;15.40;99.90;;;;;;5049334;28;20754;-66
2021/08/01 05:10:05;;;;;;;11.03;9.83;;;15.30;99.90;;;;;;5033148;28;20210;-67
2021/08/01 05:12:31;;;;;;;12.13;10.23;;;15.30;99.90;;;;;;5032779;28;20175;-66
2021/08/01 05:14:57;;;;;;;11.00;10.00;;;15.20;99.90;;;;;;5032932;28;20175;-66
2021/08/01 05:17:22;;;;;;;10.07;9.17;;;15.30;99.90;;;;;;5032136;28;20215;-67
2021/08/01 05:19:48;;;;;;;11.50;9.43;;;15.20;99.90;;;;;;5033187;28;20191;-65
2021/08/01 05:22:14;;;;;;;9.73;8.93;;;15.20;99.90;;;;;;5033892;28;20633;-66
2021/08/01 05:24:41;;;;;;;10.13;9.30;;;15.10;99.90;;;;;;5033549;28;20167;-66
2021/08/01 05:27:07;;;;;;;10.97;10.07;;;15.10;99.90;;;;;;5031773;28;20211;-66
2021/08/01 05:29:33;;;;;;;11.67;10.50;;;15.10;99.90;;;;;;5033146;28;20207;-66
2021/08/01 05:31:59;;;;;;;12.40;10.50;;;15.10;99.90;;;;;;5033218;28;20186;-66
2021/08/01 05:34:24;;;;;;;12.00;10.03;;;15.20;99.90;;;;;;5033557;28;20167;-66
2021/08/01 05:36:50;;;;;;;10.73;9.60;;;15.20;99.90;;;;;;5033423;28;20184;-65
2021/08/01 05:39:16;;;;;;;10.13;9.30;;;15.30;99.90;;;;;;5032657;28;20249;-65
2021/08/01 05:41:42;;;;;;;9.77;8.87;;;15.30;99.90;;;;;;5031887;28;20183;-65
2021/08/01 05:44:08;;;;;;;10.30;9.30;;;15.60;99.90;;;;;;5032947;28;20180;-64
2021/08/01 05:46:33;;;;;;;9.47;8.67;;;15.90;99.90;;;;;;5033231;28;20195;-65
2021/08/01 05:48:59;;;;;;;9.23;8.30;;;16.10;99.90;;;;;;5032868;28;20195;-66
2021/08/01 05:51:24;;;;;;;9.60;8.63;;;16.30;99.90;;;;;;5032820;28;20222;-65
2021/08/01 05:53:50;;;;;;;13.23;8.70;;;16.60;99.90;;;;;;5032824;28;20670;-65
2021/08/01 05:56:16;;;;;;;9.37;8.57;;;16.80;99.90;;;;;;5033050;28;20202;-65
2021/08/01 05:58:42;;;;;;;10.13;9.33;;;17.00;99.90;;;;;;5032857;28;20273;-66
2021/08/01 06:01:07;;;;;;;9.27;8.47;;;17.20;99.90;;;;;;5031284;28;20191;-64
2021/08/01 06:03:33;;;;;;;8.60;7.90;;;17.30;99.90;;;;;;5032772;28;20179;-65
2021/08/01 06:06:12;;;;;;;8.40;7.37;;;17.60;99.90;;;;;;5031110;28;20230;-65
2021/08/01 06:08:38;;;;;;;9.47;8.47;;;17.90;99.90;;;;;;5032891;28;20249;-65
2021/08/01 06:11:05;;;;;;;8.60;7.77;;;18.00;99.90;;;;;;5032223;28;20660;-65
2021/08/01 06:13:31;;;;;;;8.90;8.07;;;18.10;99.90;;;;;;5032721;28;20185;-66
2021/08/01 06:15:57;;;;;;;8.13;7.43;;;18.00;99.90;;;;;;5032364;28;20219;-65
2021/08/01 06:18:23;;;;;;;8.13;7.53;;;18.00;99.90;;;;;;5032624;28;20191;-65
2021/08/01 06:20:49;;;;;;;7.63;7.03;;;18.10;99.90;;;;;;5031959;28;20185;-65
2021/08/01 06:23:14;;;;;;;8.20;7.67;;;18.30;99.90;;;;;;5032549;28;20210;-65
2021/08/01 06:25:40;;;;;;;8.63;8.03;;;18.40;99.90;;;;;;5031989;28;20439;-65
2021/08/01 06:28:05;;;;;;;8.93;7.80;;;18.60;99.90;;;;;;5032240;28;20533;-65
2021/08/01 06:30:31;;;;;;;7.70;7.10;;;18.60;99.90;;;;;;5031939;28;20225;-65
2021/08/01 06:32:57;;;;;;;8.33;7.73;;;18.80;99.90;;;;;;5032222;28;20180;-65
2021/08/01 06:35:23;;;;;;;7.70;7.00;;;18.80;99.90;;;;;;5032244;28;20182;-65
2021/08/01 06:37:48;;;;;;;11.50;9.20;;;18.60;99.90;;;;;;5032186;28;20182;-65
2021/08/01 06:40:16;;;;;;;7.90;7.20;;;18.40;99.90;;;;;;5031761;28;20274;-65
2021/08/01 06:42:42;;;;;;;8.63;8.00;;;18.40;99.90;;;;;;5032408;28;20222;-65
2021/08/01 06:45:08;;;;;;;8.60;7.83;;;18.60;99.90;;;;;;5031817;28;20176;-65
2021/08/01 06:47:34;;;;;;;9.00;8.20;;;18.60;99.90;;;;;;5032144;28;20615;-65
2021/08/01 06:50:00;;;;;;;8.93;7.90;;;18.90;99.90;;;;;;5029599;28;20278;-65
2021/08/01 06:52:25;;;;;;;9.37;7.47;;;18.90;99.90;;;;;;5031743;28;20253;-65
2021/08/01 06:54:51;;;;;;;8.30;7.50;;;18.80;99.90;;;;;;5030482;28;20258;-64
2021/08/01 06:57:16;;;;;;;13.00;8.67;;;19.00;99.90;;;;;;5031164;28;20179;-65
2021/08/01 06:59:42;;;;;;;9.27;8.47;;;19.10;99.90;;;;;;5031277;28;20192;-65
2021/08/01 07:02:08;;;;;;;9.83;8.13;;;19.10;99.90;;;;;;5030142;28;20179;-65
2021/08/01 07:04:33;;;;;;;9.93;8.93;;;19.20;99.90;;;;;;5031251;28;20290;-65
2021/08/01 07:07:00;;;;;;;8.83;8.00;;;19.20;99.90;;;;;;5031515;28;20206;-65
2021/08/01 07:09:25;;;;;;;8.00;7.30;;;19.40;99.90;;;;;;5030815;28;20179;-65
2021/08/01 07:11:51;;;;;;;7.63;6.50;;;19.80;99.90;;;;;;5031505;28;20178;-65
2021/08/01 07:14:17;;;;;;;7.90;7.10;;;20.50;99.90;;;;;;5031995;28;20651;-65
2021/08/01 07:16:43;;;;;;;7.10;6.50;;;20.80;99.90;;;;;;5031203;28;20183;-65
2021/08/01 07:19:10;;;;;;;8.53;6.17;;;21.20;99.90;;;;;;5031581;28;20195;-65
2021/08/01 07:21:36;;;;;;;6.25;5.72;;;21.50;99.90;;;;;;5030803;28;20179;-65
2021/08/01 07:24:01;;;;;;;6.40;5.45;;;22.20;99.90;;;;;;5031405;28;20282;-65
2021/08/01 07:26:27;;;;;;;6.18;5.55;;;22.80;99.90;;;;;;5031085;28;20683;-65
2021/08/01 07:28:52;;;;;;;8.32;5.80;;;23.50;99.90;;;;;;5031323;28;20206;-65
2021/08/01 07:31:18;;;;;;;7.78;6.57;;;23.90;99.90;;;;;;5030796;28;20175;-65
2021/08/01 07:33:44;;;;;;;7.38;6.03;;;23.70;99.90;;;;;;5031381;28;20257;-65
2021/08/01 07:36:09;;;;;;;5.82;5.32;;;23.30;99.90;;;;;;5031028;28;20190;-65
2021/08/01 07:38:35;;;;;;;7.35;5.68;;;23.10;99.90;;;;;;5031268;28;20257;-65
2021/08/01 07:41:01;;;;;;;5.53;5.22;;;23.10;99.90;;;;;;5030617;28;20179;-65
2021/08/01 07:43:26;;;;;;;6.28;5.68;;;23.20;99.90;;;;;;5031174;28;20731;-65
2021/08/01 07:45:52;;;;;;;6.82;6.32;;;23.40;99.90;;;;;;5030893;28;20207;-66
2021/08/01 07:48:17;;;;;;;6.43;5.50;;;23.40;99.90;;;;;;5031151;28;20697;-66
2021/08/01 07:50:43;;;;;;;6.45;5.75;;;22.90;99.90;;;;;;5030528;28;20635;-66
2021/08/01 07:53:09;;;;;;;7.88;6.47;;;22.80;99.90;;;;;;5029542;28;20164;-66
2021/08/01 07:55:35;;;;;;;7.22;6.05;;;23.00;99.90;;;;;;5029142;28;20176;-66
2021/08/01 07:58:00;;;;;;;6.78;5.43;;;23.40;99.90;;;;;;5030895;28;20226;-66
2021/08/01 08:00:26;;;;;;;10.60;6.20;;;23.50;99.90;;;;;;5030397;28;20259;-65
2021/08/01 08:02:52;;;;;;;5.65;5.30;;;23.20;99.90;;;;;;5030942;28;20166;-66
2021/08/01 08:05:17;;;;;;;7.07;6.35;;;23.20;99.90;;;;;;5030942;28;20174;-66
2021/08/01 08:07:44;;;;;;;6.25;5.65;;;22.60;99.90;;;;;;5030899;28;20715;-66
2021/08/01 08:10:10;;;;;;;5.47;5.10;;;22.00;99.90;;;;;;5032724;28;20207;-65
2021/08/01 08:12:36;;;;;;;6.22;5.65;;;21.50;99.90;;;;;;5034902;28;20701;-66
2021/08/01 08:15:03;;;;;;;6.22;5.68;;;21.40;99.90;;;;;;5034699;28;20167;-65
2021/08/01 08:17:33;;;;;;;5.93;5.43;;;21.80;99.90;;;;;;5034505;28;20172;-65
2021/08/01 08:19:59;;;;;;;6.25;5.65;;;22.50;99.90;;;;;;5034176;28;20191;-66
2021/08/01 08:22:24;;;;;;;6.45;5.75;;;22.70;99.90;;;;;;5034480;28;20194;-65
2021/08/01 08:24:50;;;;;;;5.70;5.40;;;23.10;99.90;;;;;;5034563;28;20176;-65
2021/08/01 08:27:15;;;;;;;7.93;4.85;;;23.10;99.90;;;;;;5034302;28;20211;-65
2021/08/01 08:29:41;;;;;;;6.78;5.45;;;23.20;99.90;;;;;;5033030;28;20700;-65
2021/08/01 08:32:07;;;;;;;5.78;5.28;;;23.70;99.90;;;;;;5033891;28;20175;-65
2021/08/01 08:34:32;;;;;;;5.60;5.10;;;24.20;99.90;;;;;;5034610;28;20168;-66
2021/08/01 08:37:00;;;;;;;5.22;4.82;;;24.50;99.90;;;;;;5034096;28;20257;-66
2021/08/01 08:39:27;;;;;;;5.78;5.20;;;24.70;99.90;;;;;;5034075;28;20215;-65
2021/08/01 08:41:56;;;;;;;6.35;5.70;;;24.50;99.90;;;;;;5033660;28;20190;-66
2021/08/01 08:44:21;;;;;;;6.13;5.32;;;25.00;99.90;;;;;;5034321;28;20171;-66
2021/08/01 08:46:48;;;;;;;5.90;5.40;;;24.30;99.90;;;;;;5034229;28;20687;-65
2021/08/01 08:49:15;;;;;;;5.82;4.88;;;24.00;99.90;;;;;;5033802;28;20203;-66
2021/08/01 08:51:43;;;;;;;7.00;6.18;;;23.50;99.90;;;;;;5033875;28;20172;-65
2021/08/01 08:54:15;;;;;;;6.82;6.00;;;23.00;99.90;;;;;;5033669;28;20172;-66
2021/08/01 08:56:40;;;;;;;6.13;5.63;;;22.20;99.90;;;;;;5034321;28;20542;-66
2021/08/01 08:59:09;;;;;;;5.68;5.20;;;21.50;99.90;;;;;;5033629;28;20265;-65
2021/08/01 09:01:38;;;;;;;6.07;5.50;;;21.10;99.90;;;;;;5033630;28;20585;-65
2021/08/01 09:04:05;;;;;;;5.30;5.00;;;21.20;99.90;;;;;;5033624;28;20183;-66
2021/08/01 09:06:30;;;;;;;5.85;5.32;;;21.60;99.90;;;;;;5033937;28;20207;-65
2021/08/01 09:08:56;;;;;;;5.65;5.22;;;22.00;99.90;;;;;;5033405;28;20191;-66
2021/08/01 09:11:22;;;;;;;5.80;5.40;;;22.80;99.90;;;;;;5033542;28;20582;-65
2021/08/01 09:13:58;;;;;;;5.63;5.10;;;23.60;99.90;;;;;;5033767;28;20179;-65
2021/08/01 09:16:48;;;;;;;6.25;5.75;;;22.90;99.90;;;;;;5033980;28;20175;-66
2021/08/01 09:19:33;;;;;;;5.90;5.60;;;22.50;99.90;;;;;;5033012;28;20199;-66
2021/08/01 09:22:15;;;;;;;5.80;5.30;;;22.20;99.90;;;;;;5033400;28;20562;-65
2021/08/01 09:24:44;;;;;;;6.65;5.55;;;22.20;99.90;;;;;;5033338;28;20175;-65
2021/08/01 09:27:42;;;;;;;6.13;5.70;;;21.70;99.90;;;;;;5033514;28;20573;-65
2021/08/01 09:30:08;;;;;;;5.60;5.30;;;22.00;99.90;;;;;;5032699;28;20293;-66
2021/08/01 09:32:48;;;;;;;6.10;5.70;;;22.60;99.90;;;;;;5033566;28;20178;-65
2021/08/01 09:35:21;;;;;;;6.30;5.80;;;22.70;99.90;;;;;;5033182;28;20190;-65
2021/08/01 09:37:58;;;;;;;6.57;6.10;;;23.00;99.90;;;;;;5033257;28;20176;-65
2021/08/01 09:40:42;;;;;;;6.30;5.75;;;22.70;99.90;;;;;;5063662;23;20238;-68
2021/08/01 09:43:13;;;;;;;5.97;5.57;;;22.50;99.90;;;;;;5053064;28;20171;-69
2021/08/01 09:45:39;;;;;;;6.57;6.00;;;22.50;99.90;;;;;;5052748;28;20210;-68
2021/08/01 09:48:19;;;;;;;6.10;5.60;;;22.60;99.90;;;;;;5051231;28;20183;-68
2021/08/01 09:51:01;;;;;;;5.82;5.32;;;22.80;99.90;;;;;;5031330;28;20171;-68
2021/08/01 09:53:28;;;;;;;5.55;5.07;;;23.40;99.90;;;;;;5031251;28;20172;-69
2021/08/01 09:56:24;;;;;;;5.72;5.32;;;24.00;99.90;;;;;;5032581;28;20178;-68
2021/08/01 09:58:50;;;;;;;5.22;4.78;;;24.70;99.90;;;;;;5032425;28;20286;-68
2021/08/01 10:01:17;;;;;;;5.38;4.97;;;24.80;99.90;;;;;;5032674;28;20183;-69
2021/08/01 10:03:49;;;;;;;6.05;5.65;;;23.90;99.90;;;;;;5032359;28;20206;-68
2021/08/01 10:06:22;;;;;;;6.05;5.55;;;23.10;99.90;;;;;;5032491;28;20547;-69
2021/08/01 10:08:52;;;;;;;6.68;6.07;;;22.50;99.90;;;;;;5032466;28;20195;-68
2021/08/01 10:11:23;;;;;;;6.22;5.75;;;22.60;99.90;;;;;;5030540;28;20171;-67
2021/08/01 10:13:52;;;;;;;6.05;5.47;;;22.50;99.90;;;;;;5027478;28;20180;-68
2021/08/01 10:16:18;;;;;;;5.50;5.20;;;22.50;99.90;;;;;;5027892;28;20176;-68
2021/08/01 10:18:45;;;;;;;5.90;5.45;;;22.40;99.90;;;;;;5031111;28;20199;-69
2021/08/01 10:21:19;;;;;;;5.25;4.95;;;22.00;99.90;;;;;;5030783;28;20179;-68
2021/08/01 10:23:47;;;;;;;5.88;5.40;;;21.70;99.90;;;;;;5032052;28;20546;-69
2021/08/01 10:26:15;;;;;;;6.47;6.07;;;22.00;99.90;;;;;;5032407;28;20264;-68
2021/08/01 10:28:48;;;;;;;6.43;5.93;;;22.80;99.90;;;;;;5032586;28;20665;-69
2021/08/01 10:31:16;;;;;;;6.50;5.70;;;22.90;99.90;;;;;;5031144;28;20277;-67
2021/08/01 10:33:55;;;;;;;7.18;6.57;;;22.60;99.90;;;;;;5031767;28;20175;-68
2021/08/01 10:36:26;;;;;;;5.82;5.30;;;21.90;99.90;;;;;;5032206;28;20171;-68
2021/08/01 10:38:58;;;;;;;6.45;5.88;;;21.80;99.90;;;;;;5030333;28;20203;-68
2021/08/01 10:41:27;;;;;;;5.28;4.88;;;21.90;99.90;;;;;;5031869;28;20573;-68
2021/08/01 10:43:54;;;;;;;5.45;4.97;;;22.20;99.90;;;;;;5031521;28;20197;-68
2021/08/01 10:46:20;;;;;;;5.60;5.30;;;22.30;99.90;;;;;;5032010;28;20289;-68
2021/08/01 10:48:46;;;;;;;6.60;6.10;;;22.20;99.90;;;;;;5030218;28;20219;-68
2021/08/01 10:51:13;;;;;;;5.30;5.00;;;22.80;99.90;;;;;;5031445;28;20180;-68
2021/08/01 10:53:39;;;;;;;5.47;5.18;;;23.40;99.90;;;;;;5031593;28;20185;-68
2021/08/01 10:56:07;;;;;;;7.07;5.50;;;23.80;99.90;;;;;;5031577;28;20258;-68
2021/08/01 10:58:40;;;;;;;5.78;5.22;;;24.60;99.90;;;;;;5031487;28;20231;-67
2021/08/01 11:01:07;;;;;;;5.80;5.40;;;25.30;99.90;;;;;;5030805;28;20548;-68
2021/08/01 11:03:39;;;;;;;5.88;5.47;;;25.20;99.90;;;;;;5030404;28;20270;-68
2021/08/01 11:06:07;;;;;;;5.97;5.28;;;24.30;99.90;;;;;;5031416;28;20196;-68
2021/08/01 11:08:35;;;;;;;7.80;5.90;;;23.70;99.90;;;;;;5031264;28;20200;-67
2021/08/01 11:11:14;;;;;;;5.68;5.07;;;23.50;99.90;;;;;;5031509;28;20159;-68
2021/08/01 11:13:44;;;;;;;5.35;4.95;;;23.80;99.90;;;;;;5031162;28;20540;-68
2021/08/01 11:16:14;;;;;;;5.75;4.88;;;23.70;99.90;;;;;;5031229;28;20175;-68
2021/08/01 11:18:42;;;;;;;5.75;5.35;;;23.40;99.90;;;;;;5031446;28;20233;-69
2021/08/01 11:21:09;;;;;;;5.20;4.90;;;23.40;99.90;;;;;;5029771;28;20214;-68
2021/08/01 11:23:44;;;;;;;5.80;5.30;;;23.10;99.90;;;;;;5030965;28;20175;-68
2021/08/01 11:26:11;;;;;;;6.13;5.63;;;22.70;99.90;;;;;;5030575;28;20278;-68
2021/08/01 11:28:37;;;;;;;5.90;5.40;;;22.80;99.90;;;;;;5031192;28;20203;-68
2021/08/01 11:31:08;;;;;;;6.00;5.20;;;23.00;99.90;;;;;;5031042;28;20518;-68
2021/08/01 11:33:44;;;;;;;5.38;4.97;;;23.90;99.90;;;;;;5031439;28;20814;-68
2021/08/01 11:36:13;;;;;;;5.32;4.95;;;24.80;99.90;;;;;;5031238;28;20182;-68
2021/08/01 11:38:48;;;;;;;5.60;5.10;;;25.10;99.90;;;;;;5031126;28;20603;-67
2021/08/01 11:41:25;;;;;;;5.78;5.30;;;25.50;99.90;;;;;;5031054;28;20185;-68
2021/08/01 11:44:14;;;;;;;5.13;4.75;;;25.90;99.90;;;;;;5034578;28;20223;-68
2021/08/01 11:46:50;;;;;;;5.28;4.97;;;26.50;99.90;;;;;;5035211;28;20843;-68
2021/08/01 11:49:25;;;;;;;5.20;4.80;;;26.40;99.90;;;;;;5035142;28;20528;-67
2021/08/01 11:51:53;;;;;;;6.60;5.70;;;25.20;99.90;;;;;;5035064;28;20182;-67
2021/08/01 11:54:29;;;;;;;5.57;5.22;;;24.10;99.90;;;;;;5035574;28;20172;-68
2021/08/01 11:57:02;;;;;;;5.75;5.35;;;23.40;99.90;;;;;;5035170;28;20175;-68
2021/08/01 11:59:28;;;;;;;5.75;5.35;;;22.60;99.90;;;;;;5035024;28;20199;-67
2021/08/01 12:01:55;;;;;;;6.40;5.80;;;22.60;99.90;;;;;;5034765;28;20179;-68
2021/08/01 12:04:22;;;;;;;5.88;5.47;;;23.10;99.90;;;;;;5035338;28;20267;-67
2021/08/01 12:06:50;;;;;;;5.30;4.90;;;24.00;99.90;;;;;;5034181;28;20195;-68
2021/08/01 12:09:22;;;;;;;5.97;5.47;;;24.70;99.90;;;;;;5034686;28;20627;-68
2021/08/01 12:11:56;;;;;;;6.10;5.60;;;25.00;99.90;;;;;;5033424;28;20181;-67
2021/08/01 12:14:24;;;;;;;5.10;4.75;;;24.90;99.90;;;;;;5035055;28;20167;-68
2021/08/01 12:16:54;;;;;;;6.15;5.55;;;24.80;99.90;;;;;;5035171;28;20171;-67
2021/08/01 12:19:21;;;;;;;4.97;4.68;;;24.90;99.90;;;;;;5034601;28;20206;-67
2021/08/01 12:21:48;;;;;;;5.93;5.40;;;25.00;99.90;;;;;;5034849;28;20175;-67
2021/08/01 12:24:46;;;;;;;5.30;4.78;;;25.00;99.90;;;;;;5034691;28;20183;-67
2021/08/01 12:27:18;;;;;;;5.18;4.88;;;24.90;99.90;;;;;;5034125;28;20246;-67
2021/08/01 12:29:46;;;;;;;6.05;5.13;;;24.70;99.90;;;;;;5034270;28;20191;-67
2021/08/01 12:32:22;;;;;;;6.80;6.07;;;24.00;99.90;;;;;;5034610;28;20168;-67
2021/08/01 12:34:50;;;;;;;6.25;5.78;;;23.50;99.90;;;;;;5034514;28;20209;-68
2021/08/01 12:37:16;;;;;;;6.00;5.50;;;23.30;99.90;;;;;;5034331;28;20175;-67
2021/08/01 12:39:49;;;;;;;7.05;6.47;;;23.30;99.90;;;;;;5033949;28;20222;-67
2021/08/01 12:42:16;;;;;;;6.05;5.63;;;23.00;99.90;;;;;;5034563;28;20187;-67
2021/08/01 12:45:08;;;;;;;6.50;5.90;;;23.00;99.90;;;;;;5033046;28;20179;-66
2021/08/01 12:47:34;;;;;;;5.47;5.10;;;23.50;99.90;;;;;;5033001;28;20569;-66
2021/08/01 12:50:07;;;;;;;6.03;5.53;;;24.40;99.90;;;;;;5033534;28;20226;-67